Terminal Aerodrome Forecast
Issued by NWS

Home | Current Version | Previous Version | Graphics & Text | Print | Product List | Glossary On
Versions: 1 2 3 4 5 6 7 8 9 10 11 12 13 14 15 16 17
469
FTUS43 KBIS 181129
TAFMOT
TAF
KMOT 181129Z 1812/1912 30013G20KT P6SM SCT025 BKN035 OVC060
      TEMPO 1812/1814 BKN025 OVC035
     FM181500 29014KT P6SM SCT110
     FM182300 26009KT P6SM FEW250
     FM190300 23007KT P6SM SKC=

USA.gov is the U.S. government's official web portal to all federal, state and local government web resources and services.